Track Степанов Александр

Time Latitude Longitude Accuracy (66% radius in meters) Altitude (meters) Speed (km/hour) Bearing (degrees) Battery (%) GPS flag
06:35:31 57.205168 60.116883 0 0 0 0 1 delete
06:35:29 57.205163 60.116809 0 0 0 0 1 delete
06:35:27 57.205166 60.116718 0 0 0 0 1 delete
06:35:25 57.205174 60.116637 0 0 0 0 1 delete
06:35:23 57.205178 60.116573 0 0 0 0 1 delete
06:35:21 57.205174 60.116500 0 0 0 0 1 delete
06:35:19 57.205185 60.116437 0 0 0 0 1 delete
06:35:17 57.205189 60.116365 0 0 0 0 1 delete
06:35:15 57.205187 60.116294 0 0 0 0 1 delete
06:35:13 57.205188 60.116234 0 0 0 0 1 delete
06:35:11 57.205183 60.116177 0 0 0 0 1 delete
06:35:09 57.205181 60.116107 0 0 0 0 1 delete
06:35:07 57.205175 60.116047 0 0 0 0 1 delete
06:35:05 57.205183 60.115978 0 0 0 0 1 delete
06:35:04 57.205184 60.115918 0 0 0 0 1 delete
06:35:02 57.205194 60.115824 0 0 0 0 1 delete
06:35:01 57.205206 60.115779 0 0 0 0 1 delete
06:34:59 57.205232 60.115709 0 0 0 0 1 delete
06:34:57 57.205256 60.115639 0 0 0 0 1 delete
06:34:55 57.205268 60.115576 0 0 0 0 1 delete
06:34:54 57.205274 60.115520 0 0 0 0 1 delete
06:34:51 57.205291 60.115423 0 0 0 0 1 delete
06:34:49 57.205279 60.115376 0 0 0 0 1 delete
06:34:46 57.205272 60.115305 0 0 0 0 1 delete
06:34:44 57.205249 60.115253 0 0 0 0 1 delete
06:34:43 57.205232 60.115184 0 0 0 0 1 delete
06:34:42 57.205230 60.115117 0 0 0 0 1 delete
06:34:41 57.205227 60.115051 0 0 0 0 1 delete
06:34:40 57.205220 60.114976 0 0 0 0 1 delete
06:34:39 57.205209 60.114925 0 0 0 0 1 delete
06:34:37 57.205197 60.114840 0 0 0 0 1 delete
06:34:36 57.205179 60.114800 0 0 0 0 1 delete
06:34:35 57.205178 60.114743 0 0 0 0 1 delete
06:34:34 57.205175 60.114693 0 0 0 0 1 delete
06:34:33 57.205167 60.114645 0 0 0 0 1 delete
06:34:32 57.205160 60.114581 0 0 0 0 1 delete
06:34:31 57.205142 60.114499 0 0 0 0 1 delete
06:34:30 57.205125 60.114450 0 0 0 0 1 delete
06:34:29 57.205109 60.114383 0 0 0 0 1 delete
06:34:28 57.205079 60.114365 0 0 0 0 1 delete
06:34:27 57.205048 60.114383 0 0 0 0 1 delete
06:34:26 57.205016 60.114418 0 0 0 0 1 delete
06:34:24 57.204973 60.114440 0 0 0 0 1 delete
06:34:21 57.204939 60.114417 0 0 0 0 1 delete
06:34:18 57.204972 60.114412 0 0 0 0 1 delete
06:34:14 57.205011 60.114431 0 0 0 0 1 delete
06:34:13 57.205041 60.114421 0 0 0 0 1 delete
06:34:12 57.205072 60.114415 0 0 0 0 1 delete
06:34:11 57.205099 60.114380 0 0 0 0 1 delete
06:34:09 57.205154 60.114398 0 0 0 0 1 delete